Time;durP1;ratioP1;P1;durP2;ratioP2;P2;SDS_P1;SDS_P2;PMS_P1;PMS_P2;Temp;Humidity;BMP_temperature;BMP_pressure;BME280_temperature;BME280_humidity;BME280_pressure;Samples;Min_cycle;Max_cycle;Signal;HPM_P1;HPM_P2
2023/12/24 00:01:35;;;;;;;0.10;0.00;;;10.50;99.90;;;;;;5064386;28;20016;-82
2023/12/24 00:04:01;;;;;;;3.45;0.08;;;10.40;99.90;;;;;;5063223;28;20040;-83
2023/12/24 00:06:28;;;;;;;2.42;0.00;;;10.40;99.90;;;;;;5065464;28;20028;-82
2023/12/24 00:08:53;;;;;;;2.80;0.00;;;12.70;99.90;;;;;;5064995;28;20023;-82
2023/12/24 00:11:19;;;;;;;1.73;0.15;;;10.50;99.90;;;;;;5066999;28;20471;-82
2023/12/24 00:13:44;;;;;;;2.40;0.10;;;10.50;99.90;;;;;;5065672;28;20035;-82
2023/12/24 00:16:10;;;;;;;5.32;0.55;;;10.50;99.90;;;;;;5064820;28;20030;-81
2023/12/24 00:18:35;;;;;;;4.15;0.00;;;10.40;99.90;;;;;;5065800;28;20055;-82
2023/12/24 00:21:01;;;;;;;2.42;0.00;;;10.40;99.90;;;;;;5064851;28;20024;-82
2023/12/24 00:23:26;;;;;;;10.48;0.77;;;10.40;99.90;;;;;;5065051;28;20025;-82
2023/12/24 00:25:52;;;;;;;2.45;0.05;;;10.40;99.90;;;;;;5063660;28;20024;-82
2023/12/24 00:28:17;;;;;;;6.10;0.00;;;10.40;99.90;;;;;;5064219;28;20109;-82
2023/12/24 00:30:44;;;;;;;7.03;0.50;;;10.40;99.90;;;;;;5063580;28;20047;-82
2023/12/24 00:33:09;;;;;;;3.97;0.08;;;10.40;99.90;;;;;;5081688;28;20063;-83
2023/12/24 00:35:35;;;;;;;2.45;0.28;;;10.40;99.90;;;;;;5082920;28;20033;-83
2023/12/24 00:38:01;;;;;;;3.22;0.30;;;10.30;99.90;;;;;;5082381;28;20020;-83
2023/12/24 00:40:26;;;;;;;6.28;0.30;;;10.30;99.90;;;;;;5082222;28;20470;-82
2023/12/24 00:42:52;;;;;;;3.83;0.17;;;10.30;99.90;;;;;;5063406;28;20423;-83
2023/12/24 00:45:18;;;;;;;6.68;0.00;;;10.30;99.90;;;;;;5082290;28;20031;-82
2023/12/24 00:47:43;;;;;;;2.10;0.30;;;10.30;99.90;;;;;;5063891;28;20025;-82
2023/12/24 00:50:09;;;;;;;4.55;0.00;;;10.30;99.90;;;;;;5082110;28;20036;-82
2023/12/24 00:52:36;;;;;;;5.63;0.40;;;10.30;99.90;;;;;;5063654;28;20040;-82
2023/12/24 00:55:02;;;;;;;6.80;0.50;;;10.30;99.90;;;;;;5082289;28;20031;-82
2023/12/24 00:57:27;;;;;;;3.15;0.10;;;10.20;99.90;;;;;;5082056;28;20031;-82
2023/12/24 00:59:56;;;;;;;7.47;0.35;;;10.10;99.90;;;;;;5063245;28;20020;-82
2023/12/24 01:02:22;;;;;;;1.13;0.00;;;10.00;99.90;;;;;;5063735;28;20055;-82
2023/12/24 01:04:47;;;;;;;4.72;0.20;;;10.00;99.90;;;;;;5063738;28;20021;-82
2023/12/24 01:07:16;;;;;;;3.03;0.70;;;10.00;99.90;;;;;;5064735;28;20017;-82
2023/12/24 01:09:41;;;;;;;4.65;0.47;;;9.80;99.90;;;;;;5062488;28;20470;-83
2023/12/24 01:12:07;;;;;;;1.83;0.00;;;9.80;99.90;;;;;;5063428;28;20016;-83
2023/12/24 01:14:32;;;;;;;3.20;0.47;;;9.80;99.90;;;;;;5081571;28;20025;-84
2023/12/24 01:16:59;;;;;;;1.05;0.20;;;9.70;99.90;;;;;;5062291;28;20054;-83
2023/12/24 01:19:25;;;;;;;6.03;0.32;;;10.70;99.90;;;;;;5082682;28;20111;-81
2023/12/24 01:21:50;;;;;;;2.15;0.10;;;9.70;99.90;;;;;;5065501;28;20052;-81
2023/12/24 01:24:16;;;;;;;6.43;0.40;;;9.70;99.90;;;;;;5065536;28;20120;-81
2023/12/24 01:26:41;;;;;;;5.88;0.75;;;10.70;99.90;;;;;;5065107;28;20017;-82
2023/12/24 01:29:07;;;;;;;6.55;0.22;;;9.70;99.90;;;;;;5064791;28;20043;-82
2023/12/24 01:31:33;;;;;;;8.02;0.30;;;9.60;99.90;;;;;;5082743;28;20035;-82
2023/12/24 01:33:59;;;;;;;7.30;0.28;;;9.70;99.90;;;;;;5066008;28;20021;-82
2023/12/24 01:36:25;;;;;;;5.25;0.22;;;9.60;99.90;;;;;;5065856;28;20530;-82
2023/12/24 01:38:50;;;;;;;15.82;0.43;;;9.70;99.90;;;;;;5085347;28;20545;-81
2023/12/24 01:41:16;;;;;;;8.93;0.17;;;12.00;99.90;;;;;;5084367;28;20025;-81
2023/12/24 01:43:43;;;;;;;10.45;0.60;;;9.70;99.90;;;;;;5067613;28;20032;-81
2023/12/24 01:46:13;;;;;;;5.10;0.32;;;9.60;99.90;;;;;;5086094;28;20020;-82
2023/12/24 01:48:39;;;;;;;4.00;0.10;;;9.60;99.90;;;;;;5083826;28;20056;-80
2023/12/24 01:51:05;;;;;;;2.33;0.30;;;9.60;99.90;;;;;;5063372;28;20193;-83
2023/12/24 01:53:32;;;;;;;8.90;1.10;;;9.50;99.90;;;;;;5061817;28;20029;-82
2023/12/24 01:56:00;;;;;;;8.27;0.15;;;9.50;99.90;;;;;;5061538;28;20066;-83
2023/12/24 01:58:27;;;;;;;4.30;0.20;;;12.30;99.90;;;;;;5061299;28;20052;-83
2023/12/24 02:00:53;;;;;;;5.38;0.52;;;9.50;99.90;;;;;;5061260;28;20017;-83
2023/12/24 02:03:19;;;;;;;5.07;0.68;;;9.50;99.90;;;;;;5062138;28;20025;-83
2023/12/24 02:05:47;;;;;;;6.45;0.80;;;9.60;99.90;;;;;;5062583;28;20050;-83
2023/12/24 02:08:16;;;;;;;7.93;0.47;;;9.40;99.90;;;;;;5062049;28;20020;-83
2023/12/24 02:10:42;;;;;;;5.47;0.17;;;9.60;99.90;;;;;;5061461;28;20510;-83
2023/12/24 02:13:09;;;;;;;11.30;0.77;;;9.60;99.90;;;;;;5079105;28;20025;-83
2023/12/24 02:15:35;;;;;;;7.88;0.55;;;9.70;99.90;;;;;;5061217;28;20020;-83
2023/12/24 02:18:01;;;;;;;8.45;0.65;;;9.70;99.90;;;;;;5061742;28;20039;-82
2023/12/24 02:20:26;;;;;;;10.80;0.85;;;10.40;99.90;;;;;;5061553;28;20384;-82
2023/12/24 02:22:52;;;;;;;11.20;0.30;;;9.70;99.90;;;;;;5062291;28;20016;-83
2023/12/24 02:25:19;;;;;;;17.15;1.33;;;9.60;99.90;;;;;;5062168;28;20024;-82
2023/12/24 02:27:54;;;;;;;8.02;0.40;;;10.30;99.90;;;;;;5061692;28;20491;-82
2023/12/24 02:30:24;;;;;;;3.63;0.63;;;9.70;99.90;;;;;;5079146;28;20072;-82
2023/12/24 02:32:56;;;;;;;6.50;0.47;;;9.70;99.90;;;;;;5062030;28;20068;-83
2023/12/24 02:35:23;;;;;;;6.97;0.20;;;9.80;99.90;;;;;;5061668;28;20487;-82
2023/12/24 02:37:49;;;;;;;6.82;0.10;;;;;;;;;;5061947;28;20032;-83
2023/12/24 02:40:15;;;;;;;8.90;0.50;;;9.80;99.90;;;;;;5061440;28;20029;-83
2023/12/24 02:42:40;;;;;;;5.15;0.75;;;9.80;99.90;;;;;;5080791;28;20078;-83
2023/12/24 02:45:06;;;;;;;15.20;1.75;;;9.80;99.90;;;;;;5061458;28;20028;-82
2023/12/24 02:47:32;;;;;;;5.90;0.77;;;9.80;99.90;;;;;;5060592;28;20024;-82
2023/12/24 02:49:57;;;;;;;8.82;0.65;;;9.80;99.90;;;;;;5061427;28;20020;-83
2023/12/24 02:52:23;;;;;;;5.68;0.47;;;9.80;99.90;;;;;;5061505;28;20052;-84
2023/12/24 02:54:48;;;;;;;5.18;0.00;;;9.70;99.90;;;;;;5062320;28;20028;-83
2023/12/24 02:57:15;;;;;;;5.10;0.60;;;9.70;99.90;;;;;;5079586;28;20035;-77
2023/12/24 02:59:41;;;;;;;6.72;0.10;;;9.80;99.90;;;;;;5076009;28;20021;-80
2023/12/24 03:02:06;;;;;;;2.15;0.20;;;9.70;99.90;;;;;;5069299;28;20048;-81
2023/12/24 03:04:32;;;;;;;5.35;0.00;;;9.70;99.90;;;;;;5070149;28;20017;-79
2023/12/24 03:06:57;;;;;;;4.75;0.00;;;9.80;99.90;;;;;;5083988;28;20024;-79
2023/12/24 03:09:23;;;;;;;4.95;0.00;;;9.80;99.90;;;;;;5084935;28;20025;-79
2023/12/24 03:11:48;;;;;;;5.78;0.25;;;9.80;99.90;;;;;;5084993;28;20415;-79
2023/12/24 03:14:14;;;;;;;3.80;0.10;;;9.80;99.90;;;;;;5065908;28;20032;-79
2023/12/24 03:16:39;;;;;;;3.45;0.30;;;9.80;99.90;;;;;;5068712;28;20051;-80
2023/12/24 03:19:05;;;;;;;2.30;0.30;;;9.80;99.90;;;;;;5068450;28;20025;-80
2023/12/24 03:21:31;;;;;;;7.90;0.35;;;9.80;99.90;;;;;;5068606;28;20021;-80
2023/12/24 03:23:56;;;;;;;2.40;0.00;;;9.80;99.90;;;;;;5086757;28;20019;-80
2023/12/24 03:26:23;;;;;;;2.78;0.63;;;9.80;99.90;;;;;;5069504;28;20084;-81
2023/12/24 03:28:49;;;;;;;2.22;0.00;;;9.80;99.90;;;;;;5087819;28;20023;-79
2023/12/24 03:31:15;;;;;;;2.67;0.32;;;9.90;99.90;;;;;;5088129;28;20067;-80
2023/12/24 03:33:41;;;;;;;2.47;0.00;;;9.70;99.90;;;;;;5069243;28;20446;-80
2023/12/24 03:36:10;;;;;;;1.00;0.15;;;10.00;99.90;;;;;;5069833;28;20024;-80
2023/12/24 03:38:36;;;;;;;1.20;0.28;;;9.80;99.90;;;;;;5085912;28;20036;-81
2023/12/24 03:41:02;;;;;;;1.55;0.00;;;10.00;99.90;;;;;;5088743;28;20076;-81
2023/12/24 03:43:30;;;;;;;1.25;0.00;;;10.00;99.90;;;;;;5073963;28;20078;-80
2023/12/24 03:45:55;;;;;;;1.65;0.00;;;10.00;99.90;;;;;;5072190;28;20028;-81
2023/12/24 03:48:21;;;;;;;0.13;0.00;;;10.00;99.90;;;;;;5072355;28;20027;-80
2023/12/24 03:50:47;;;;;;;1.27;0.00;;;10.00;99.90;;;;;;5087107;28;20024;-78
2023/12/24 03:53:12;;;;;;;0.43;0.00;;;11.60;99.90;;;;;;5078196;28;20044;-78
2023/12/24 03:55:38;;;;;;;1.63;0.00;;;10.00;99.90;;;;;;5068243;28;20468;-79
2023/12/24 03:58:03;;;;;;;1.20;0.03;;;10.10;99.90;;;;;;5088670;28;20028;-79
2023/12/24 04:00:29;;;;;;;0.45;0.17;;;10.10;99.90;;;;;;5088550;28;20023;-79
2023/12/24 04:02:55;;;;;;;2.65;0.00;;;10.10;99.90;;;;;;5080906;28;20068;-78
2023/12/24 04:05:21;;;;;;;0.90;0.15;;;10.10;99.90;;;;;;5059447;28;20494;-78
2023/12/24 04:07:46;;;;;;;0.57;0.00;;;10.10;99.90;;;;;;5060071;28;20074;-78
2023/12/24 04:10:12;;;;;;;1.13;0.00;;;10.10;99.90;;;;;;5089080;28;20013;-79
2023/12/24 04:12:38;;;;;;;2.53;0.00;;;10.10;99.90;;;;;;5090791;28;20054;-80
2023/12/24 04:15:07;;;;;;;0.20;0.00;;;10.20;99.90;;;;;;5090053;28;20024;-80
2023/12/24 04:17:36;;;;;;;3.03;0.00;;;10.10;99.90;;;;;;5091124;28;20033;-80
2023/12/24 04:20:03;;;;;;;2.35;0.00;;;10.10;99.90;;;;;;5091765;28;20043;-80
2023/12/24 04:22:29;;;;;;;2.30;0.00;;;10.10;99.90;;;;;;5089648;28;20549;-80
2023/12/24 04:24:55;;;;;;;3.65;0.10;;;10.10;99.90;;;;;;5073506;28;20024;-80
2023/12/24 04:27:20;;;;;;;0.90;0.00;;;10.10;99.90;;;;;;5073405;28;20502;-81
2023/12/24 04:29:46;;;;;;;1.80;0.17;;;10.20;99.90;;;;;;5092149;28;20024;-81
2023/12/24 04:32:12;;;;;;;1.13;0.05;;;;;;;;;;5074550;28;20029;-81
2023/12/24 04:34:39;;;;;;;1.98;0.30;;;;;;;;;;5091363;28;20058;-81
2023/12/24 04:37:04;;;;;;;2.17;0.00;;;10.20;99.90;;;;;;5072121;28;20036;-82
2023/12/24 04:39:30;;;;;;;1.63;0.00;;;10.20;99.90;;;;;;5073865;28;20016;-82
2023/12/24 04:41:56;;;;;;;1.02;0.00;;;10.20;99.90;;;;;;5072889;28;20040;-81
2023/12/24 04:44:21;;;;;;;1.45;0.00;;;10.30;99.90;;;;;;5090440;28;20086;-82
2023/12/24 04:46:48;;;;;;;1.95;0.00;;;10.30;99.90;;;;;;5072769;28;20028;-81
2023/12/24 04:49:13;;;;;;;1.13;0.00;;;10.20;99.90;;;;;;5090189;28;20028;-80
2023/12/24 04:51:41;;;;;;;3.15;0.00;;;10.30;99.90;;;;;;5072643;28;20025;-80
2023/12/24 04:54:06;;;;;;;1.83;0.13;;;10.30;99.90;;;;;;5072935;28;20044;-82
2023/12/24 04:56:32;;;;;;;3.58;0.00;;;10.20;99.90;;;;;;5070961;28;20020;-81
2023/12/24 04:58:58;;;;;;;4.43;0.15;;;13.00;99.90;;;;;;5070500;28;20020;-82
2023/12/24 05:01:24;;;;;;;6.15;0.47;;;11.00;99.90;;;;;;5072126;28;20023;-82
2023/12/24 05:03:50;;;;;;;1.73;0.00;;;;;;;;;;5073313;28;20052;-81
2023/12/24 05:06:15;;;;;;;1.70;0.00;;;10.30;99.90;;;;;;5091403;28;20427;-80
2023/12/24 05:08:41;;;;;;;2.90;0.05;;;10.40;99.90;;;;;;5090954;28;20021;-80
2023/12/24 05:11:07;;;;;;;5.57;0.20;;;10.40;99.90;;;;;;5074135;28;20078;-79
2023/12/24 05:13:34;;;;;;;3.72;0.00;;;10.40;99.90;;;;;;5073917;28;20037;-78
2023/12/24 05:15:59;;;;;;;4.63;0.00;;;10.40;99.90;;;;;;5071982;28;20030;-80
2023/12/24 05:18:25;;;;;;;4.88;0.35;;;10.40;99.90;;;;;;5091026;28;20024;-81
2023/12/24 05:20:51;;;;;;;4.13;0.00;;;10.40;99.90;;;;;;5090827;28;20076;-80
2023/12/24 05:23:20;;;;;;;5.63;0.28;;;10.40;99.90;;;;;;5090751;28;20048;-80
2023/12/24 05:25:46;;;;;;;3.28;0.10;;;10.40;99.90;;;;;;5072095;28;20020;-80
2023/12/24 05:28:11;;;;;;;5.28;0.22;;;10.40;99.90;;;;;;5072005;28;20016;-79
2023/12/24 05:30:37;;;;;;;3.30;0.28;;;10.40;99.90;;;;;;5074458;28;20016;-79
2023/12/24 05:33:03;;;;;;;2.42;0.13;;;10.40;99.90;;;;;;5090604;28;20025;-81
2023/12/24 05:35:28;;;;;;;4.00;0.15;;;10.50;99.90;;;;;;5090250;28;20024;-79
2023/12/24 05:37:54;;;;;;;7.10;0.88;;;10.50;99.90;;;;;;5091350;28;20025;-80
2023/12/24 05:40:19;;;;;;;9.63;0.32;;;10.50;99.90;;;;;;5072478;28;20115;-79
2023/12/24 05:42:45;;;;;;;7.97;0.65;;;;;;;;;;5071682;28;20048;-80
2023/12/24 05:45:11;;;;;;;12.40;0.50;;;10.50;99.90;;;;;;5070856;28;20021;-80
2023/12/24 05:47:37;;;;;;;6.55;0.40;;;10.50;99.90;;;;;;5089585;28;20030;-80
2023/12/24 05:50:07;;;;;;;7.05;0.20;;;11.70;99.90;;;;;;5072052;28;20045;-80
2023/12/24 05:52:33;;;;;;;6.22;0.93;;;10.50;99.90;;;;;;5071029;28;20044;-80
2023/12/24 05:54:59;;;;;;;4.07;0.57;;;10.60;99.90;;;;;;5071609;28;20442;-80
2023/12/24 05:57:25;;;;;;;2.13;0.47;;;11.20;99.90;;;;;;5088058;28;20029;-80
2023/12/24 05:59:50;;;;;;;8.50;0.10;;;10.90;99.90;;;;;;5089065;28;20031;-80
2023/12/24 06:02:18;;;;;;;4.05;0.15;;;10.60;99.90;;;;;;5070777;28;20028;-79
2023/12/24 06:04:43;;;;;;;5.90;0.90;;;10.60;99.90;;;;;;5088984;28;20008;-79
2023/12/24 06:07:09;;;;;;;6.53;0.10;;;10.50;99.90;;;;;;5071817;28;20028;-79
2023/12/24 06:09:35;;;;;;;10.90;0.22;;;10.60;99.90;;;;;;5070993;28;20040;-80
2023/12/24 06:12:00;;;;;;;5.93;0.30;;;12.40;99.90;;;;;;5071508;28;20036;-80
2023/12/24 06:14:26;;;;;;;8.65;0.65;;;10.70;99.90;;;;;;5070608;28;20024;-80
2023/12/24 06:16:52;;;;;;;11.07;0.63;;;10.60;99.90;;;;;;5089531;28;20031;-80
2023/12/24 06:19:18;;;;;;;11.82;1.25;;;10.70;99.90;;;;;;5070823;28;20584;-80
2023/12/24 06:21:43;;;;;;;4.32;0.45;;;10.70;99.90;;;;;;5071553;28;20039;-81
2023/12/24 06:24:09;;;;;;;3.10;0.50;;;10.70;99.90;;;;;;5072386;28;20455;-80
2023/12/24 06:26:34;;;;;;;10.95;0.63;;;12.70;99.90;;;;;;5072266;28;20027;-80
2023/12/24 06:29:00;;;;;;;6.57;0.20;;;10.70;99.90;;;;;;5071915;28;20025;-80
2023/12/24 06:31:25;;;;;;;3.60;0.10;;;10.70;99.90;;;;;;5071172;28;20028;-80
2023/12/24 06:33:51;;;;;;;9.93;0.70;;;10.70;99.90;;;;;;5070978;28;20415;-80
2023/12/24 06:36:17;;;;;;;4.38;0.40;;;10.70;99.90;;;;;;5070355;28;20042;-80
2023/12/24 06:38:43;;;;;;;23.95;1.50;;;10.80;99.90;;;;;;5070158;28;20066;-81
2023/12/24 06:41:09;;;;;;;10.05;0.63;;;10.70;99.90;;;;;;5088706;28;20076;-80
2023/12/24 06:43:37;;;;;;;11.73;0.70;;;10.80;99.90;;;;;;5086993;28;20035;-81
2023/12/24 06:46:02;;;;;;;9.70;0.77;;;10.80;99.90;;;;;;5067838;28;20051;-80
2023/12/24 06:48:28;;;;;;;14.32;0.77;;;10.80;99.90;;;;;;5086193;28;20020;-81
2023/12/24 06:50:54;;;;;;;10.82;1.60;;;10.80;99.90;;;;;;5083531;28;20054;-81
2023/12/24 06:53:19;;;;;;;9.95;1.55;;;10.80;99.90;;;;;;5083633;28;20028;-81
2023/12/24 06:55:45;;;;;;;12.70;2.13;;;10.80;99.90;;;;;;5066883;28;20484;-81
2023/12/24 06:58:10;;;;;;;16.10;2.42;;;10.80;99.90;;;;;;5068704;28;20492;-80
2023/12/24 07:00:36;;;;;;;5.95;0.57;;;10.80;99.90;;;;;;5068439;28;20028;-81
2023/12/24 07:03:02;;;;;;;9.30;1.45;;;10.90;99.90;;;;;;5086942;28;20403;-80
2023/12/24 07:05:34;;;;;;;12.95;1.55;;;10.90;99.90;;;;;;5069168;28;20154;-80
2023/12/24 07:07:59;;;;;;;9.48;0.93;;;13.60;99.90;;;;;;5065671;28;20021;-80
2023/12/24 07:10:25;;;;;;;13.13;0.82;;;11.10;99.90;;;;;;5062082;28;20027;-78
2023/12/24 07:12:51;;;;;;;10.75;1.25;;;10.90;99.90;;;;;;5058042;28;20024;-79
2023/12/24 07:15:17;;;;;;;15.18;0.98;;;10.90;99.90;;;;;;5058135;28;20365;-77
2023/12/24 07:17:42;;;;;;;13.77;0.95;;;10.90;99.90;;;;;;5058953;28;20020;-77
2023/12/24 07:20:08;;;;;;;12.68;1.40;;;10.90;99.90;;;;;;5076843;28;20050;-78
2023/12/24 07:22:34;;;;;;;13.50;0.70;;;10.90;99.90;;;;;;5081857;28;20020;-81
2023/12/24 07:25:00;;;;;;;19.02;2.50;;;10.90;99.90;;;;;;5082082;28;20048;-82
2023/12/24 07:27:25;;;;;;;13.88;1.15;;;10.90;99.90;;;;;;5064379;28;20403;-82
2023/12/24 07:29:51;;;;;;;11.90;1.60;;;11.00;99.90;;;;;;5063937;28;20042;-82
2023/12/24 07:32:16;;;;;;;19.50;2.38;;;13.80;99.90;;;;;;5063763;28;20502;-81
2023/12/24 07:34:42;;;;;;;11.10;1.00;;;11.00;99.90;;;;;;5064694;28;20070;-81
2023/12/24 07:37:07;;;;;;;13.48;1.80;;;11.00;99.90;;;;;;5082259;28;20107;-82
2023/12/24 07:39:33;;;;;;;21.15;2.00;;;13.50;99.90;;;;;;5064530;28;20119;-82
2023/12/24 07:41:59;;;;;;;13.32;1.13;;;11.70;99.90;;;;;;5082604;28;20045;-81
2023/12/24 07:44:24;;;;;;;18.67;1.90;;;11.00;99.90;;;;;;5045807;28;1061753;-81
2023/12/24 07:46:52;;;;;;;17.90;1.70;;;11.00;99.90;;;;;;5082780;28;20100;-82
2023/12/24 07:49:17;;;;;;;9.55;1.15;;;11.00;99.90;;;;;;5082063;28;20467;-81
2023/12/24 07:51:43;;;;;;;16.15;2.10;;;;;;;;;;5082598;28;20026;-81
2023/12/24 07:54:09;;;;;;;7.68;1.13;;;;;;;;;;5082516;28;20025;-81
2023/12/24 07:56:35;;;;;;;13.80;1.10;;;11.00;99.90;;;;;;5065902;28;20082;-81
2023/12/24 07:59:01;;;;;;;16.20;2.55;;;;;;;;;;5082850;28;20024;-81
2023/12/24 08:01:27;;;;;;;10.35;0.82;;;11.10;99.90;;;;;;5065409;28;20036;-81
2023/12/24 08:03:53;;;;;;;18.98;1.48;;;11.10;99.90;;;;;;5066111;28;20013;-82
2023/12/24 08:06:18;;;;;;;11.38;0.77;;;11.10;99.90;;;;;;5065972;28;20048;-81
2023/12/24 08:08:44;;;;;;;9.70;1.02;;;11.10;99.90;;;;;;5065517;28;20084;-80
2023/12/24 08:11:10;;;;;;;17.35;0.80;;;11.10;99.90;;;;;;5065386;28;20031;-81
2023/12/24 08:13:36;;;;;;;8.13;0.82;;;11.10;99.90;;;;;;5084013;28;20017;-80
2023/12/24 08:16:02;;;;;;;9.50;0.65;;;11.10;99.90;;;;;;5065809;28;20024;-81
2023/12/24 08:18:27;;;;;;;8.35;1.17;;;11.10;99.90;;;;;;5065519;28;20032;-80
2023/12/24 08:20:53;;;;;;;6.80;0.10;;;11.10;99.90;;;;;;5065325;28;20027;-82
2023/12/24 08:23:18;;;;;;;4.15;0.57;;;11.10;99.90;;;;;;5066416;28;20009;-81
2023/12/24 08:25:45;;;;;;;7.35;0.50;;;11.10;99.90;;;;;;5064668;28;20032;-81
2023/12/24 08:28:11;;;;;;;13.00;1.15;;;11.10;99.90;;;;;;5064957;28;20085;-82
2023/12/24 08:30:36;;;;;;;4.57;0.20;;;11.00;99.90;;;;;;5085680;28;20078;-81
2023/12/24 08:33:02;;;;;;;4.90;0.73;;;11.10;99.90;;;;;;5068675;28;20021;-82
2023/12/24 08:35:28;;;;;;;4.10;0.20;;;11.20;99.90;;;;;;5069694;28;20024;-82
2023/12/24 08:37:53;;;;;;;3.65;0.15;;;11.20;99.90;;;;;;5086628;28;20084;-83
2023/12/24 08:40:19;;;;;;;2.53;0.50;;;11.20;99.90;;;;;;5068035;28;20024;-82
2023/12/24 08:42:45;;;;;;;4.53;0.73;;;11.20;99.90;;;;;;5083355;28;20028;-82
2023/12/24 08:45:12;;;;;;;3.67;0.70;;;11.20;99.90;;;;;;5067847;28;20036;-82
2023/12/24 08:47:38;;;;;;;7.30;0.60;;;11.20;99.90;;;;;;5068086;28;20025;-82
2023/12/24 08:50:04;;;;;;;3.92;0.52;;;12.50;99.90;;;;;;5068500;28;20032;-83
2023/12/24 08:52:29;;;;;;;7.70;1.48;;;11.20;99.90;;;;;;5068923;28;20437;-83
2023/12/24 08:54:55;;;;;;;12.23;0.77;;;11.20;99.90;;;;;;5084878;28;20029;-83
2023/12/24 08:57:20;;;;;;;7.57;1.00;;;11.20;99.90;;;;;;5065165;28;20078;-80
2023/12/24 08:59:46;;;;;;;6.85;1.02;;;11.20;99.90;;;;;;5064993;28;20158;-82
2023/12/24 09:02:11;;;;;;;8.38;1.17;;;11.20;99.90;;;;;;5082892;28;20021;-82
2023/12/24 09:04:37;;;;;;;14.10;1.67;;;11.20;99.90;;;;;;5083730;28;20031;-81
2023/12/24 09:07:03;;;;;;;11.68;1.48;;;11.30;99.90;;;;;;5087522;28;20024;-83
2023/12/24 09:09:29;;;;;;;4.32;0.80;;;11.20;99.90;;;;;;5066687;28;20100;-83
2023/12/24 09:11:54;;;;;;;12.98;1.60;;;11.30;99.90;;;;;;5067247;28;20009;-83
2023/12/24 09:14:20;;;;;;;10.77;1.33;;;11.20;99.90;;;;;;5066269;28;20028;-82
2023/12/24 09:16:45;;;;;;;9.95;1.95;;;11.30;99.90;;;;;;5065459;28;20091;-82
2023/12/24 09:19:11;;;;;;;9.73;1.10;;;11.20;99.90;;;;;;5082899;28;20033;-82
2023/12/24 09:21:37;;;;;;;13.45;1.65;;;11.50;99.90;;;;;;5066019;28;20016;-82
2023/12/24 09:24:02;;;;;;;6.50;0.80;;;14.30;99.90;;;;;;5084693;28;20075;-79
2023/12/24 09:26:28;;;;;;;12.23;0.98;;;11.30;99.90;;;;;;5085070;28;20070;-83
2023/12/24 09:28:53;;;;;;;3.83;0.43;;;11.30;99.90;;;;;;5066926;28;20021;-82
2023/12/24 09:31:19;;;;;;;5.85;1.00;;;11.10;99.90;;;;;;5066253;28;20020;-81
2023/12/24 09:33:45;;;;;;;10.25;1.58;;;11.30;99.90;;;;;;5085570;28;20059;-82
2023/12/24 09:36:11;;;;;;;10.32;1.42;;;11.30;99.90;;;;;;5068650;28;20025;-82
2023/12/24 09:38:36;;;;;;;8.93;1.23;;;11.30;99.90;;;;;;5085894;28;20040;-81
2023/12/24 09:41:02;;;;;;;18.42;2.33;;;11.30;99.90;;;;;;5086180;28;20031;-81
2023/12/24 09:43:31;;;;;;;20.58;3.85;;;11.30;99.90;;;;;;5089270;28;20040;-82
2023/12/24 09:45:57;;;;;;;13.93;1.77;;;11.30;99.90;;;;;;5071138;28;20017;-81
2023/12/24 09:48:23;;;;;;;12.65;2.05;;;11.30;99.90;;;;;;5071517;28;20050;-83
2023/12/24 09:50:50;;;;;;;12.73;1.77;;;11.30;99.90;;;;;;5071487;28;20036;-82
2023/12/24 09:53:16;;;;;;;19.10;2.37;;;11.40;99.90;;;;;;5069054;28;20004;-83
2023/12/24 09:55:41;;;;;;;17.13;1.83;;;11.40;99.90;;;;;;5063519;28;20032;-81
2023/12/24 09:58:08;;;;;;;17.83;2.20;;;11.40;99.90;;;;;;5081155;28;20025;-81
2023/12/24 10:00:33;;;;;;;17.67;1.40;;;11.40;99.90;;;;;;5064199;28;20029;-82
2023/12/24 10:02:59;;;;;;;24.52;2.83;;;11.40;99.90;;;;;;5067274;28;20034;-81
2023/12/24 10:05:25;;;;;;;20.55;1.70;;;11.50;99.90;;;;;;5065059;28;20032;-82
2023/12/24 10:07:51;;;;;;;21.77;2.17;;;11.40;99.90;;;;;;5065323;28;20396;-82
2023/12/24 10:10:29;;;;;;;22.50;2.22;;;11.50;99.90;;;;;;5085067;28;20017;-81
2023/12/24 10:13:07;;;;;;;22.50;2.20;;;11.50;99.90;;;;;;5068820;28;20024;-81
2023/12/24 10:15:38;;;;;;;16.88;2.65;;;11.50;99.90;;;;;;5083861;28;20468;-82
2023/12/24 10:18:17;;;;;;;19.48;1.50;;;11.50;99.90;;;;;;5064068;28;20017;-81
2023/12/24 10:20:43;;;;;;;20.70;1.67;;;11.60;99.90;;;;;;5064343;28;20027;-82
2023/12/24 10:23:09;;;;;;;26.27;2.60;;;11.60;99.90;;;;;;5083132;28;20068;-82
2023/12/24 10:25:34;;;;;;;27.67;3.17;;;11.60;99.90;;;;;;5064410;28;20047;-82
2023/12/24 10:28:07;;;;;;;26.15;2.28;;;11.70;99.90;;;;;;5083764;28;20024;-82
2023/12/24 10:30:33;;;;;;;30.88;2.95;;;11.70;99.90;;;;;;5064261;28;20020;-83
2023/12/24 10:33:09;;;;;;;15.00;1.75;;;11.70;99.90;;;;;;5065952;28;20131;-82
2023/12/24 10:35:35;;;;;;;14.27;1.20;;;11.80;99.90;;;;;;5065541;28;20032;-81
2023/12/24 10:38:15;;;;;;;26.52;2.35;;;12.90;99.90;;;;;;5082538;28;20390;-82
2023/12/24 10:40:44;;;;;;;13.80;1.00;;;11.90;99.90;;;;;;5063998;28;20107;-82
2023/12/24 10:43:09;;;;;;;;;;;11.70;99.90;;;;;;5061981;28;20036;-82
2023/12/24 10:45:35;;;;;;;27.50;2.30;;;;;;;;;;5062219;28;20424;-82
2023/12/24 10:48:01;;;;;;;30.05;3.50;;;11.70;99.90;;;;;;5061584;28;20495;-83
2023/12/24 10:50:27;;;;;;;18.77;3.20;;;11.70;99.90;;;;;;5058880;28;20025;-83
2023/12/24 10:52:55;;;;;;;19.20;1.33;;;11.80;99.90;;;;;;5060757;28;20020;-82
2023/12/24 10:55:22;;;;;;;12.93;1.85;;;11.70;99.90;;;;;;5063818;28;20055;-83
2023/12/24 10:58:14;;;;;;;17.10;2.33;;;11.70;99.90;;;;;;5061721;28;20024;-83
2023/12/24 11:00:40;;;;;;;12.13;1.00;;;11.70;99.90;;;;;;5024073;28;20174;-83
2023/12/24 11:03:05;;;;;;;17.08;1.55;;;11.70;99.90;;;;;;5059595;28;20048;-83
2023/12/24 11:05:40;;;;;;;20.38;1.70;;;11.70;99.90;;;;;;5059578;28;20028;-83
2023/12/24 11:08:26;;;;;;;12.77;0.50;;;11.70;99.90;;;;;;5059610;28;20025;-82
2023/12/24 11:11:07;;;;;;;8.00;0.20;;;12.00;99.90;;;;;;5058765;28;20075;-78
2023/12/24 11:13:32;;;;;;;14.13;1.00;;;11.70;99.90;;;;;;5075648;28;20021;-78
2023/12/24 11:16:03;;;;;;;14.57;0.95;;;11.70;99.90;;;;;;5057867;28;20487;-80
2023/12/24 11:18:48;;;;;;;11.63;0.55;;;11.70;99.90;;;;;;5077290;28;20028;-80
2023/12/24 11:21:19;;;;;;;9.88;1.20;;;13.10;99.90;;;;;;5077008;28;20357;-80
2023/12/24 11:24:08;;;;;;;16.27;1.40;;;11.70;99.90;;;;;;5058481;28;20641;-80
2023/12/24 11:26:33;;;;;;;5.47;0.20;;;11.70;99.90;;;;;;5042774;28;20454;-80
2023/12/24 11:29:00;;;;;;;5.18;0.20;;;11.80;99.90;;;;;;5076617;28;20063;-80
2023/12/24 11:31:27;;;;;;;10.57;0.82;;;11.70;99.90;;;;;;5058619;28;20028;-80
2023/12/24 11:33:56;;;;;;;5.10;1.38;;;11.70;99.90;;;;;;5076577;28;20024;-81
2023/12/24 11:36:24;;;;;;;5.88;0.00;;;11.70;99.90;;;;;;5058730;28;20031;-81
2023/12/24 11:38:59;;;;;;;7.93;0.75;;;11.70;99.90;;;;;;5058301;28;20031;-81
2023/12/24 11:41:25;;;;;;;8.07;0.63;;;11.70;99.90;;;;;;5076795;28;20025;-81
2023/12/24 11:43:55;;;;;;;6.22;0.13;;;11.70;99.90;;;;;;5058753;28;20037;-81
2023/12/24 11:46:23;;;;;;;8.10;0.80;;;11.70;99.90;;;;;;5058220;28;20021;-81
2023/12/24 11:48:49;;;;;;;10.85;0.10;;;11.80;99.90;;;;;;5076737;28;20016;-80
2023/12/24 11:51:15;;;;;;;5.63;0.32;;;11.70;99.90;;;;;;5058787;28;20119;-83
2023/12/24 11:53:42;;;;;;;10.30;0.77;;;11.80;99.90;;;;;;5077596;28;20102;-80
2023/12/24 11:56:12;;;;;;;9.75;0.15;;;11.80;99.90;;;;;;5077978;28;20051;-84
2023/12/24 11:58:40;;;;;;;6.22;1.17;;;11.80;99.90;;;;;;5060853;28;20056;-84
2023/12/24 12:01:06;;;;;;;11.50;0.82;;;;;;;;;;5061503;28;20020;-84
2023/12/24 12:03:32;;;;;;;7.80;0.57;;;11.80;99.90;;;;;;5083490;28;20036;-84
2023/12/24 12:05:59;;;;;;;9.27;0.90;;;11.80;99.90;;;;;;5064186;28;20025;-84
2023/12/24 12:08:26;;;;;;;10.68;0.90;;;12.20;99.90;;;;;;5064056;28;20123;-84
2023/12/24 12:10:52;;;;;;;4.18;0.55;;;11.80;99.90;;;;;;5064205;28;20141;-83
2023/12/24 12:13:18;;;;;;;17.88;0.95;;;11.90;99.90;;;;;;5064664;28;20080;-84
2023/12/24 12:15:45;;;;;;;11.80;0.90;;;11.90;99.90;;;;;;5063958;28;20104;-83
2023/12/24 12:18:11;;;;;;;11.07;1.60;;;11.90;99.90;;;;;;5064541;28;20025;-83
2023/12/24 12:20:37;;;;;;;13.85;0.90;;;11.90;99.90;;;;;;5063724;28;20066;-84
2023/12/24 12:23:02;;;;;;;17.20;1.30;;;11.90;99.90;;;;;;5082403;28;20025;-84
2023/12/24 12:25:28;;;;;;;23.98;1.45;;;11.90;99.90;;;;;;5082324;28;20035;-84
2023/12/24 12:27:54;;;;;;;19.55;1.25;;;;;;;;;;5083031;28;20025;-84
2023/12/24 12:30:22;;;;;;;15.32;1.58;;;;;;;;;;5064230;28;20028;-84
2023/12/24 12:32:48;;;;;;;15.70;1.48;;;12.00;99.90;;;;;;5064151;28;20040;-84
2023/12/24 12:35:14;;;;;;;16.92;2.78;;;12.00;99.90;;;;;;5064106;28;20024;-84
2023/12/24 12:37:40;;;;;;;18.17;2.78;;;12.00;99.90;;;;;;5064625;28;20025;-84
2023/12/24 12:40:07;;;;;;;13.35;1.58;;;12.00;99.90;;;;;;5064986;28;20116;-84
2023/12/24 12:42:34;;;;;;;13.88;1.23;;;12.00;99.90;;;;;;5064605;28;20070;-84
2023/12/24 12:45:00;;;;;;;8.95;1.02;;;12.00;99.90;;;;;;5082012;28;20028;-83